Airfield :
LOGIN :

Register | Disclaimer

   EN    FR    IT 

 










Legend :    VFR   Marginal VFR   IFR   Intensive IFR   Very Intensive IFR
Visi :
Ceiling :
>= 8 km
>= 3000ft
5 to 8 km
1000 to 3000 ft
1500m to 5 km
500 to 1000 ft
800 to 1500m
200 to 500 ft
< 800m
< 200 ft
Symbols :   Thunderstorms  Fog  Heavy snow  Heavy precipitations  Wind > 20 kt
SIGMETs :     Misc.  Thunderstorms  Icing  Turbulence  Mountain Waves  Volcanic Ashes







- Airport Elevation : 233 ft
- IATA code : REU


LERS - Reus Tarragona

CURRENT METAR :
  • 232300Z AUTO VRB02KT 9999 NCD 09/M03 Q1024

EXPIRED METARs :
  • 232230Z AUTO VRB02KT 9999 NCD 08/M01 Q1024
  • 232200Z AUTO 03003KT 9999 NCD 08/M01 Q1024
  • 232130Z AUTO VRB01KT 9999 NCD 08/00 Q1024
  • 232100Z 02004KT 340V060 CAVOK 11/00 Q1024
  • 232030Z VRB02KT CAVOK 11/02 Q1024

TAF TAF LERS
Valid from the 23 at 21:00 until the 24 at 21:00 UTC


232000Z 2321/2421 VRB03KT 9999 FEW030 TX21/2412Z TN08/2406Z
TEMPO 2406/2410 01007KT
BECMG 2410/2412 17006KT
BECMG 2418/2420 VRB03KT
No reported NOTAMs for that airfield.



MET'MAP, your aeronautical weather chart ! - Copyright ORBIFLY December 2007 - Disclaimer

ORBIFLY MET'MAP TEAM :

Programming & Development : Alexandra Zaïnal
Concept & Development : Baudouin d'Aumeries
Co-Development & Prog : Marc-Olivier Méhu
Technical & hardware support : Manuel Goepfert

Contact : metmap@orbifly.com




SOURCES & CREDITS :

   NOAA